createdAt,value
2023-05-01T00:01:38.410Z,5.74
2023-05-01T00:04:05.139Z,5.40
2023-05-01T00:06:31.788Z,5.32
2023-05-01T00:08:58.368Z,5.28
2023-05-01T00:11:24.992Z,5.50
2023-05-01T00:13:51.482Z,5.45
2023-05-01T00:16:18.077Z,5.50
2023-05-01T00:18:47.376Z,5.36
2023-05-01T00:21:13.924Z,5.43
2023-05-01T00:23:40.434Z,5.49
2023-05-01T00:26:06.876Z,5.44
2023-05-01T00:28:33.396Z,5.20
2023-05-01T00:30:59.957Z,5.26
2023-05-01T00:33:26.623Z,5.37
2023-05-01T00:35:53.139Z,5.52
2023-05-01T00:38:19.670Z,4.92
2023-05-01T00:40:46.178Z,5.30
2023-05-01T00:43:12.755Z,5.62
2023-05-01T00:45:39.294Z,5.50
2023-05-01T00:48:05.879Z,5.14
2023-05-01T00:50:35.270Z,5.16
2023-05-01T00:53:01.829Z,5.19
2023-05-01T00:55:28.332Z,5.00
2023-05-01T00:57:54.863Z,5.07
2023-05-01T01:00:21.458Z,5.47
2023-05-01T01:02:47.973Z,5.27
2023-05-01T01:05:14.463Z,5.53
2023-05-01T01:07:43.979Z,5.55
2023-05-01T01:10:10.485Z,5.36
2023-05-01T01:12:37.030Z,5.27
2023-05-01T01:15:03.709Z,5.27
2023-05-01T01:17:30.288Z,5.53
2023-05-01T01:19:57.010Z,5.32
2023-05-01T01:22:23.699Z,5.25
2023-05-01T01:24:50.174Z,5.30
2023-05-01T01:27:16.663Z,5.29
2023-05-01T01:29:43.196Z,5.15
2023-05-01T01:32:09.809Z,5.24
2023-05-01T01:34:36.326Z,5.19
2023-05-01T01:37:02.898Z,5.12
2023-05-01T01:39:29.421Z,5.00
2023-05-01T01:41:55.964Z,5.03
2023-05-01T01:44:22.470Z,5.01
2023-05-01T01:46:49.064Z,5.31
2023-05-01T01:49:15.662Z,4.97
2023-05-01T01:51:42.263Z,5.03
2023-05-01T01:54:08.825Z,5.16
2023-05-01T01:56:35.350Z,5.04
2023-05-01T01:59:01.818Z,5.10
2023-05-01T02:01:28.464Z,4.99
2023-05-01T02:03:55.182Z,5.06
2023-05-01T02:06:21.763Z,5.18
2023-05-01T02:08:48.336Z,4.97
2023-05-01T02:11:14.852Z,4.92
2023-05-01T02:13:41.414Z,5.35
2023-05-01T02:16:07.964Z,5.07
2023-05-01T02:18:34.580Z,5.03
2023-05-01T02:21:01.119Z,4.70
2023-05-01T02:23:27.614Z,5.06
2023-05-01T02:25:54.076Z,5.00
2023-05-01T02:28:20.554Z,4.75
2023-05-01T02:30:47.113Z,4.74
2023-05-01T02:33:13.700Z,5.03
2023-05-01T02:35:40.143Z,5.02
2023-05-01T02:38:06.644Z,5.02
2023-05-01T02:40:33.200Z,5.09
2023-05-01T02:42:59.674Z,5.14
2023-05-01T02:45:26.229Z,4.95
2023-05-01T02:47:52.960Z,4.85
2023-05-01T02:50:19.592Z,4.93
2023-05-01T02:52:46.084Z,4.98
2023-05-01T02:55:12.553Z,4.86
2023-05-01T02:57:39.043Z,4.77
2023-05-01T03:00:05.587Z,4.77
2023-05-01T03:02:32.100Z,4.53
2023-05-01T03:04:58.690Z,4.78
2023-05-01T03:07:25.453Z,4.81
2023-05-01T03:09:51.943Z,4.87
2023-05-01T03:12:18.620Z,4.80
2023-05-01T03:14:45.137Z,5.07
2023-05-01T03:17:11.619Z,4.62
2023-05-01T03:19:38.196Z,4.63
2023-05-01T03:22:04.661Z,4.87
2023-05-01T03:24:31.194Z,4.79
2023-05-01T03:26:57.752Z,4.71
2023-05-01T03:29:24.263Z,4.76
2023-05-01T03:31:50.753Z,4.97
2023-05-01T03:34:17.374Z,4.90
2023-05-01T03:36:43.885Z,4.59
2023-05-01T03:39:10.392Z,4.87
2023-05-01T03:41:37.023Z,4.75
2023-05-01T03:44:03.560Z,4.69
2023-05-01T03:46:30.182Z,4.85
2023-05-01T03:48:56.780Z,4.83
2023-05-01T03:51:23.397Z,4.61
2023-05-01T03:53:49.887Z,4.45
2023-05-01T03:56:16.391Z,4.62
2023-05-01T03:58:42.984Z,4.30
2023-05-01T04:01:09.537Z,4.95
2023-05-01T04:03:36.123Z,4.81
2023-05-01T04:06:02.818Z,4.61
2023-05-01T04:08:29.354Z,4.63
2023-05-01T04:10:55.835Z,4.70
2023-05-01T04:13:22.400Z,4.77
2023-05-01T04:15:49.088Z,4.64
2023-05-01T04:18:15.648Z,4.72
2023-05-01T04:20:42.184Z,4.93
2023-05-01T04:23:08.716Z,4.54
2023-05-01T04:25:35.263Z,4.56
2023-05-01T04:28:01.906Z,4.75
2023-05-01T04:30:28.438Z,4.79
2023-05-01T04:32:55.060Z,4.75
2023-05-01T04:35:21.616Z,4.97
2023-05-01T04:37:48.153Z,4.89
2023-05-01T04:40:14.722Z,5.07
2023-05-01T04:42:41.302Z,4.73
2023-05-01T04:45:07.808Z,4.62
2023-05-01T04:47:34.417Z,4.51
2023-05-01T04:50:01.017Z,4.41
2023-05-01T04:52:27.539Z,4.79
2023-05-01T04:54:54.050Z,4.49
2023-05-01T04:57:20.669Z,4.56
2023-05-01T04:59:47.207Z,4.60
2023-05-01T05:02:13.788Z,4.51
2023-05-01T05:04:40.319Z,4.20
2023-05-01T05:07:06.803Z,4.35
2023-05-01T05:09:33.401Z,4.50
2023-05-01T05:11:59.938Z,4.59
2023-05-01T05:14:26.564Z,4.61
2023-05-01T05:16:53.235Z,4.35
2023-05-01T05:19:19.714Z,4.38
2023-05-01T05:21:46.249Z,4.17
2023-05-01T05:24:12.712Z,4.35
2023-05-01T05:26:39.320Z,4.55
2023-05-01T05:29:05.787Z,4.50
2023-05-01T05:31:32.305Z,4.39
2023-05-01T05:33:58.854Z,4.40
2023-05-01T05:36:25.454Z,4.12
2023-05-01T05:38:51.910Z,4.38
2023-05-01T05:41:18.367Z,4.30
2023-05-01T05:43:44.854Z,4.26
2023-05-01T05:46:11.377Z,4.31
2023-05-01T05:48:37.857Z,4.42
2023-05-01T05:51:04.332Z,4.43
2023-05-01T05:53:30.833Z,4.47
2023-05-01T05:55:57.440Z,4.46
2023-05-01T05:58:23.973Z,4.38
2023-05-01T06:00:50.474Z,4.55
2023-05-01T06:03:16.992Z,4.35
2023-05-01T06:05:43.704Z,4.61
2023-05-01T06:08:10.199Z,4.40
2023-05-01T06:10:36.717Z,4.38
2023-05-01T06:13:10.805Z,4.38
2023-05-01T06:15:40.988Z,4.18
2023-05-01T06:18:07.831Z,4.28
2023-05-01T06:20:34.483Z,3.94
2023-05-01T06:23:01.124Z,4.04
2023-05-01T06:25:27.723Z,4.09
2023-05-01T06:27:54.256Z,3.96
2023-05-01T06:30:21.134Z,3.72
2023-05-01T06:32:47.730Z,4.05
2023-05-01T06:35:14.241Z,3.94
2023-05-01T06:37:40.844Z,3.87
2023-05-01T06:40:07.345Z,3.72
2023-05-01T06:42:36.586Z,3.20
2023-05-01T06:45:03.062Z,3.41
2023-05-01T06:47:32.766Z,3.47
2023-05-01T06:49:59.456Z,3.51
2023-05-01T06:52:26.057Z,3.40
2023-05-01T06:54:52.569Z,3.45
2023-05-01T06:57:19.101Z,3.59
2023-05-01T06:59:45.693Z,3.61
2023-05-01T07:02:12.235Z,3.66
2023-05-01T07:04:38.767Z,3.51
2023-05-01T07:07:05.424Z,3.55
2023-05-01T07:09:31.978Z,4.10
2023-05-01T07:11:58.540Z,4.25
2023-05-01T07:14:24.990Z,4.11
2023-05-01T07:16:51.474Z,4.04
2023-05-01T07:19:18.009Z,4.11
2023-05-01T07:21:44.523Z,4.04
2023-05-01T07:24:10.994Z,4.20
2023-05-01T07:26:37.411Z,3.90
2023-05-01T07:29:03.870Z,4.22
2023-05-01T07:31:30.388Z,4.27
2023-05-01T07:33:56.906Z,4.00
2023-05-01T07:36:23.378Z,4.36
2023-05-01T07:38:49.813Z,4.07
2023-05-01T07:41:16.389Z,4.31
2023-05-01T07:43:42.884Z,4.72
2023-05-01T07:46:09.724Z,4.70
2023-05-01T07:48:38.170Z,4.70
2023-05-01T07:51:05.311Z,4.34
2023-05-01T07:53:32.900Z,4.49
2023-05-01T07:55:59.364Z,4.28
2023-05-01T07:58:25.792Z,4.37
2023-05-01T08:00:52.320Z,4.33
2023-05-01T08:03:19.003Z,4.32
2023-05-01T08:05:45.847Z,4.22
2023-05-01T08:08:12.312Z,4.33
2023-05-01T08:10:38.725Z,4.34
2023-05-01T08:13:05.289Z,4.44
2023-05-01T08:15:31.715Z,4.27
2023-05-01T08:17:58.198Z,4.16
2023-05-01T08:20:24.685Z,4.31
2023-05-01T08:22:51.188Z,4.27
2023-05-01T08:25:17.732Z,4.55
2023-05-01T08:27:44.291Z,4.25
2023-05-01T08:30:10.797Z,4.58
2023-05-01T08:32:40.598Z,4.33
2023-05-01T08:35:07.132Z,4.45
2023-05-01T08:37:33.671Z,4.38
2023-05-01T08:40:00.185Z,4.21
2023-05-01T08:42:26.676Z,4.39
2023-05-01T08:44:53.190Z,4.44
2023-05-01T08:47:19.798Z,4.65
2023-05-01T08:49:46.411Z,4.16
2023-05-01T08:52:12.950Z,4.07
2023-05-01T08:54:39.474Z,4.22
2023-05-01T08:57:06.017Z,4.35
2023-05-01T08:59:32.541Z,4.17
2023-05-01T09:01:58.996Z,4.18
2023-05-01T09:04:25.590Z,3.98
2023-05-01T09:06:52.282Z,4.11
2023-05-01T09:09:18.899Z,4.21
2023-05-01T09:11:45.330Z,3.87
2023-05-01T09:14:11.757Z,3.90
2023-05-01T09:16:38.252Z,3.99
2023-05-01T09:19:05.022Z,4.16
2023-05-01T09:21:31.558Z,4.26
2023-05-01T09:23:58.129Z,4.28
2023-05-01T09:26:24.612Z,3.89
2023-05-01T09:28:51.131Z,3.98
2023-05-01T09:31:17.600Z,3.99
2023-05-01T09:33:44.037Z,4.09
2023-05-01T09:36:10.551Z,3.98
2023-05-01T09:38:37.558Z,4.00
2023-05-01T09:41:04.133Z,3.97
2023-05-01T09:43:30.671Z,3.98
2023-05-01T09:45:57.220Z,3.91
2023-05-01T09:48:23.740Z,3.85
2023-05-01T09:50:50.257Z,3.75
2023-05-01T09:53:16.699Z,3.95
2023-05-01T09:55:43.227Z,3.83
2023-05-01T09:58:09.745Z,3.65
2023-05-01T10:00:36.305Z,3.60
2023-05-01T10:03:02.945Z,3.56
2023-05-01T10:05:29.535Z,3.80
2023-05-01T10:07:56.013Z,3.83
2023-05-01T10:10:22.562Z,4.45
2023-05-01T10:12:49.097Z,8.91
2023-05-01T10:15:24.466Z,13.09
2023-05-01T10:17:52.468Z,16.12
2023-05-01T10:20:19.002Z,21.69
2023-05-01T10:22:45.482Z,22.38
2023-05-01T10:25:11.989Z,23.75
2023-05-01T10:27:38.445Z,23.50
2023-05-01T10:30:04.918Z,26.75
2023-05-01T10:32:31.434Z,26.97
2023-05-01T10:34:58.206Z,24.90
2023-05-01T10:37:24.931Z,23.80
2023-05-01T10:39:51.384Z,22.06
2023-05-01T10:42:18.042Z,21.01
2023-05-01T10:44:44.630Z,21.33
2023-05-01T10:47:11.070Z,19.99
2023-05-01T10:49:37.604Z,18.23
2023-05-01T10:52:04.067Z,18.70
2023-05-01T10:54:30.560Z,18.65
2023-05-01T10:56:57.037Z,17.94
2023-05-01T10:59:23.511Z,17.24
2023-05-01T11:01:51.792Z,17.41
2023-05-01T11:04:18.603Z,17.29
2023-05-01T11:06:45.269Z,16.83
2023-05-01T11:09:11.750Z,16.19
2023-05-01T11:11:38.291Z,16.21
2023-05-01T11:14:04.757Z,16.35
2023-05-01T11:16:31.279Z,16.55
2023-05-01T11:18:57.833Z,19.96
2023-05-01T11:21:24.363Z,24.09
2023-05-01T11:23:50.836Z,24.93
2023-05-01T11:26:17.354Z,23.41
2023-05-01T11:28:43.882Z,21.47
2023-05-01T11:31:10.586Z,20.27
2023-05-01T11:33:41.074Z,19.92
2023-05-01T11:36:07.615Z,18.97
2023-05-01T11:38:34.115Z,18.41
2023-05-01T11:41:00.643Z,17.98
2023-05-01T11:43:27.252Z,17.74
2023-05-01T11:45:53.762Z,17.63
2023-05-01T11:48:20.270Z,16.59
2023-05-01T11:50:46.776Z,17.33
2023-05-01T11:53:13.205Z,17.14
2023-05-01T11:55:39.700Z,17.15
2023-05-01T11:58:06.258Z,16.33
2023-05-01T12:00:32.832Z,16.29
2023-05-01T12:02:59.342Z,15.58
2023-05-01T12:05:25.941Z,15.36
2023-05-01T12:07:52.464Z,15.61
2023-05-01T12:10:18.962Z,14.71
2023-05-01T12:12:45.485Z,14.09
2023-05-01T12:15:11.957Z,13.57
2023-05-01T12:17:38.604Z,13.79
2023-05-01T12:20:05.098Z,13.62
2023-05-01T12:22:31.628Z,13.05
2023-05-01T12:24:58.305Z,13.02
2023-05-01T12:27:24.995Z,12.81
2023-05-01T12:29:51.423Z,12.19
2023-05-01T12:32:17.886Z,12.53
2023-05-01T12:34:44.350Z,12.01
2023-05-01T12:37:10.822Z,11.51
2023-05-01T12:39:37.314Z,11.62
2023-05-01T12:42:03.838Z,11.34
2023-05-01T12:44:30.343Z,11.85
2023-05-01T12:46:56.906Z,11.33
2023-05-01T12:49:23.553Z,11.27
2023-05-01T12:51:50.086Z,10.80
2023-05-01T12:54:16.616Z,10.77
2023-05-01T12:56:43.076Z,10.53
2023-05-01T12:59:09.573Z,10.49
2023-05-01T13:01:36.115Z,10.71
2023-05-01T13:04:02.726Z,10.49
2023-05-01T13:06:29.334Z,10.01
2023-05-01T13:08:55.857Z,9.85
2023-05-01T13:11:22.361Z,10.19
2023-05-01T13:13:48.897Z,10.18
2023-05-01T13:16:15.437Z,9.92
2023-05-01T13:18:41.910Z,9.72
2023-05-01T13:21:08.391Z,9.32
2023-05-01T13:23:34.855Z,10.27
2023-05-01T13:26:01.309Z,9.73
2023-05-01T13:28:27.775Z,9.39
2023-05-01T13:30:54.305Z,9.86
2023-05-01T13:33:20.794Z,9.33
2023-05-01T13:35:47.342Z,9.56
2023-05-01T13:38:13.838Z,9.20
2023-05-01T13:40:40.364Z,9.36
2023-05-01T13:43:06.918Z,8.41
2023-05-01T13:45:33.467Z,8.70
2023-05-01T13:47:59.999Z,8.50
2023-05-01T13:50:26.539Z,8.51
2023-05-01T13:52:53.001Z,8.71
2023-05-01T13:55:19.432Z,8.62
2023-05-01T13:57:45.916Z,8.33
2023-05-01T14:00:12.498Z,8.55
2023-05-01T14:02:39.070Z,8.34
2023-05-01T14:05:05.825Z,8.12
2023-05-01T14:07:32.560Z,8.21
2023-05-01T14:09:59.039Z,7.96
2023-05-01T14:12:25.500Z,7.87
2023-05-01T14:14:52.044Z,7.68
2023-05-01T14:17:18.749Z,7.76
2023-05-01T14:19:45.302Z,7.76
2023-05-01T14:22:11.842Z,7.38
2023-05-01T14:24:38.384Z,7.66
2023-05-01T14:27:04.986Z,7.02
2023-05-01T14:29:31.794Z,7.07
2023-05-01T14:31:58.266Z,7.45
2023-05-01T14:34:25.527Z,7.41
2023-05-01T14:36:53.777Z,7.49
2023-05-01T14:39:20.853Z,6.79
2023-05-01T14:41:47.567Z,6.73
2023-05-01T14:44:14.482Z,6.99
2023-05-01T14:46:41.705Z,6.48
2023-05-01T14:49:09.734Z,6.40
2023-05-01T14:51:36.774Z,6.48
2023-05-01T14:54:03.771Z,6.63
2023-05-01T14:56:30.375Z,6.66
2023-05-01T14:58:57.020Z,6.18
2023-05-01T15:01:23.741Z,6.13
2023-05-01T15:03:51.231Z,6.08
2023-05-01T15:06:18.104Z,5.80
2023-05-01T15:08:44.863Z,5.95
2023-05-01T15:11:11.794Z,6.16
2023-05-01T15:13:38.547Z,5.78
2023-05-01T15:16:05.600Z,5.68
2023-05-01T15:18:32.345Z,6.74
2023-05-01T15:20:58.938Z,6.24
2023-05-01T15:23:25.430Z,6.05
2023-05-01T15:25:52.163Z,6.17
2023-05-01T15:28:18.626Z,6.21
2023-05-01T15:30:45.125Z,6.03
2023-05-01T15:33:11.635Z,6.17
2023-05-01T15:35:38.073Z,6.48
2023-05-01T15:38:04.512Z,6.03
2023-05-01T15:40:30.961Z,6.17
2023-05-01T15:42:57.503Z,6.12
2023-05-01T15:45:24.034Z,6.42
2023-05-01T15:47:50.638Z,6.15
2023-05-01T15:50:17.131Z,6.23
2023-05-01T15:52:43.641Z,5.65
2023-05-01T15:55:10.180Z,5.93
2023-05-01T15:57:37.074Z,6.38
2023-05-01T16:00:03.716Z,6.20
2023-05-01T16:02:30.360Z,6.45
2023-05-01T16:04:56.951Z,6.16
2023-05-01T16:07:23.453Z,5.91
2023-05-01T16:09:49.948Z,6.02
2023-05-01T16:12:16.433Z,5.66
2023-05-01T16:14:42.870Z,5.99
2023-05-01T16:17:09.394Z,6.04
2023-05-01T16:19:35.859Z,6.03
2023-05-01T16:22:02.349Z,5.84
2023-05-01T16:24:29.049Z,6.13
2023-05-01T16:26:55.525Z,5.79
2023-05-01T16:29:21.978Z,5.81
2023-05-01T16:31:48.545Z,5.71
2023-05-01T16:34:15.127Z,6.15
2023-05-01T16:36:41.680Z,5.84
2023-05-01T16:39:10.212Z,6.05
2023-05-01T16:41:37.255Z,6.00
2023-05-01T16:44:03.690Z,9.95
2023-05-01T16:46:30.252Z,11.00
2023-05-01T16:48:56.750Z,10.07
2023-05-01T16:51:23.212Z,9.95
2023-05-01T16:53:49.675Z,8.94
2023-05-01T16:56:16.163Z,8.59
2023-05-01T16:58:42.638Z,8.18
2023-05-01T17:01:09.104Z,7.92
2023-05-01T17:03:35.577Z,7.72
2023-05-01T17:06:02.096Z,7.03
2023-05-01T17:08:28.584Z,6.84
2023-05-01T17:10:55.093Z,6.69
2023-05-01T17:13:21.593Z,5.86
2023-05-01T17:15:48.085Z,5.89
2023-05-01T17:18:14.523Z,5.54
2023-05-01T17:20:40.971Z,5.88
2023-05-01T17:23:07.339Z,5.68
2023-05-01T17:25:33.915Z,5.41
2023-05-01T17:28:00.342Z,5.68
2023-05-01T17:30:26.996Z,5.51
2023-05-01T17:32:53.637Z,5.16
2023-05-01T17:35:20.152Z,5.34
2023-05-01T17:37:46.764Z,5.11
2023-05-01T17:40:14.344Z,4.83
2023-05-01T17:42:40.808Z,5.30
2023-05-01T17:45:07.246Z,5.06
2023-05-01T17:47:33.779Z,5.04
2023-05-01T17:50:00.449Z,4.66
2023-05-01T17:52:27.285Z,4.45
2023-05-01T17:54:53.770Z,4.52
2023-05-01T17:57:20.400Z,4.13
2023-05-01T17:59:46.882Z,4.16
2023-05-01T18:02:13.552Z,4.22
2023-05-01T18:04:40.177Z,4.27
2023-05-01T18:07:06.694Z,4.03
2023-05-01T18:09:33.197Z,4.31
2023-05-01T18:11:59.726Z,4.23
2023-05-01T18:14:26.160Z,3.96
2023-05-01T18:16:52.843Z,3.93
2023-05-01T18:19:19.400Z,4.01
2023-05-01T18:21:45.949Z,3.95
2023-05-01T18:24:12.462Z,4.15
2023-05-01T18:26:38.927Z,4.09
2023-05-01T18:29:05.495Z,3.75
2023-05-01T18:31:32.124Z,3.90
2023-05-01T18:33:58.572Z,3.57
2023-05-01T18:36:25.059Z,3.99
2023-05-01T18:38:51.662Z,3.58
2023-05-01T18:41:20.941Z,3.48
2023-05-01T18:43:47.379Z,3.52
2023-05-01T18:46:13.896Z,3.61
2023-05-01T18:48:40.372Z,3.64
2023-05-01T18:51:09.002Z,3.85
2023-05-01T18:53:35.914Z,3.62
2023-05-01T18:56:02.432Z,3.43
2023-05-01T18:58:28.828Z,3.30
2023-05-01T19:00:55.265Z,3.54
2023-05-01T19:03:21.821Z,3.37
2023-05-01T19:05:49.011Z,3.47
2023-05-01T19:08:15.682Z,3.37
2023-05-01T19:10:42.131Z,3.28
2023-05-01T19:13:08.621Z,3.38
2023-05-01T19:15:35.134Z,3.21
2023-05-01T19:18:01.655Z,3.49
2023-05-01T19:20:28.116Z,3.31
2023-05-01T19:22:54.606Z,3.40
2023-05-01T19:25:21.125Z,3.27
2023-05-01T19:27:49.014Z,3.33
2023-05-01T19:30:15.559Z,3.20
2023-05-01T19:32:42.079Z,3.41
2023-05-01T19:35:08.611Z,3.13
2023-05-01T19:37:35.142Z,3.12
2023-05-01T19:40:01.840Z,3.34
2023-05-01T19:42:28.571Z,3.40
2023-05-01T19:44:55.631Z,3.33
2023-05-01T19:47:22.446Z,3.17
2023-05-01T19:49:49.353Z,3.26
2023-05-01T19:52:15.798Z,3.14
2023-05-01T19:54:42.223Z,3.16
2023-05-01T19:57:08.694Z,3.25
2023-05-01T19:59:35.148Z,2.99
2023-05-01T20:02:01.777Z,2.96
2023-05-01T20:04:28.401Z,3.31
2023-05-01T20:06:54.971Z,2.98
2023-05-01T20:09:21.671Z,3.18
2023-05-01T20:11:48.136Z,3.01
2023-05-01T20:14:14.635Z,2.92
2023-05-01T20:16:41.761Z,3.13
2023-05-01T20:19:08.208Z,3.07
2023-05-01T20:21:34.643Z,3.04
2023-05-01T20:24:01.159Z,2.95
2023-05-01T20:26:27.699Z,2.95
2023-05-01T20:28:54.265Z,2.88
2023-05-01T20:31:20.756Z,2.88
2023-05-01T20:33:47.365Z,2.86
2023-05-01T20:36:13.838Z,2.95
2023-05-01T20:38:40.275Z,2.90
2023-05-01T20:41:06.819Z,2.94
2023-05-01T20:43:33.317Z,2.95
2023-05-01T20:45:59.789Z,2.84
2023-05-01T20:48:26.338Z,2.83
2023-05-01T20:50:52.882Z,2.82
2023-05-01T20:53:19.554Z,2.85
2023-05-01T20:55:46.055Z,2.97
2023-05-01T20:58:12.549Z,2.79
2023-05-01T21:00:39.082Z,2.74
2023-05-01T21:03:05.771Z,2.78
2023-05-01T21:05:32.370Z,3.01
2023-05-01T21:07:58.891Z,2.72
2023-05-01T21:10:26.219Z,2.89
2023-05-01T21:12:52.665Z,2.77
2023-05-01T21:15:19.206Z,2.80
2023-05-01T21:17:45.738Z,2.68
2023-05-01T21:20:13.370Z,2.74
2023-05-01T21:22:39.887Z,2.93
2023-05-01T21:25:06.382Z,2.58
2023-05-01T21:27:32.926Z,2.71
2023-05-01T21:29:59.580Z,2.70
2023-05-01T21:32:29.403Z,2.74
2023-05-01T21:34:56.024Z,2.63
2023-05-01T21:37:22.652Z,2.73
2023-05-01T21:39:49.241Z,2.66
2023-05-01T21:42:15.728Z,2.54
2023-05-01T21:44:42.396Z,2.74
2023-05-01T21:47:08.960Z,2.50
2023-05-01T21:49:35.595Z,2.64
2023-05-01T21:52:02.101Z,2.57
2023-05-01T21:54:28.519Z,2.69
2023-05-01T21:56:57.843Z,2.48
2023-05-01T21:59:24.403Z,2.82
2023-05-01T22:01:50.889Z,2.83
2023-05-01T22:04:17.532Z,2.76
2023-05-01T22:06:44.108Z,2.54
2023-05-01T22:09:10.733Z,2.44
2023-05-01T22:11:37.227Z,2.68
2023-05-01T22:14:03.767Z,2.54
2023-05-01T22:16:30.340Z,2.60
2023-05-01T22:18:56.886Z,2.50
2023-05-01T22:21:23.359Z,2.45
2023-05-01T22:23:49.873Z,2.69
2023-05-01T22:26:16.387Z,2.46
2023-05-01T22:28:45.771Z,2.52
2023-05-01T22:31:12.358Z,2.44
2023-05-01T22:33:38.855Z,2.61
2023-05-01T22:36:07.445Z,2.47
2023-05-01T22:38:34.331Z,2.45
2023-05-01T22:41:00.864Z,2.50
2023-05-01T22:43:27.395Z,2.44
2023-05-01T22:45:53.983Z,2.46
2023-05-01T22:48:20.610Z,2.40
2023-05-01T22:50:47.112Z,2.51
2023-05-01T22:53:13.632Z,2.64
2023-05-01T22:55:40.133Z,2.47
2023-05-01T22:58:06.643Z,2.36
2023-05-01T23:00:33.110Z,2.46
2023-05-01T23:02:59.779Z,2.47
2023-05-01T23:05:26.300Z,2.51
2023-05-01T23:07:52.856Z,2.38
2023-05-01T23:10:19.410Z,2.31
2023-05-01T23:12:45.968Z,2.46
2023-05-01T23:15:12.460Z,2.33
2023-05-01T23:17:38.963Z,2.27
2023-05-01T23:20:05.503Z,2.24
2023-05-01T23:22:31.948Z,2.33
2023-05-01T23:24:58.464Z,2.27
2023-05-01T23:27:25.051Z,2.32
2023-05-01T23:29:51.625Z,2.38
2023-05-01T23:32:18.190Z,2.36
2023-05-01T23:34:44.732Z,2.30
2023-05-01T23:37:11.212Z,2.35
2023-05-01T23:39:37.631Z,2.46
2023-05-01T23:42:04.141Z,2.29
2023-05-01T23:44:30.691Z,2.40
2023-05-01T23:46:57.236Z,2.45
2023-05-01T23:49:23.819Z,2.47
2023-05-01T23:51:50.341Z,2.32
2023-05-01T23:54:16.913Z,2.31
2023-05-01T23:56:43.398Z,2.15
2023-05-01T23:59:09.901Z,2.31
